Poland, New York
Current Conditions -  °F | °C
As of 6:53 AM on Tuesday 21 Oct 2014 (Local Time) from KRME Reporting Station
Light Rain Light Rain  
Wind Chill: 43°   Ceiling: 5000
Heat Index: 45°   Visibility: 10mi
Dew Point: 44°   Wind: 5mph
Humidity: 97%   Direction: 140°SE
Pressure: 29.87"   Gusts: NA
Location:  43.23°N, 75.06°W
Report Text: KRME 211053Z AUTO 14004KT 10SM -RA FEW042 OVC050 07/07 A2987 RMK AO2 RAB0956 SLP117 P0000 T00720067
Loading
Personal Weather Stations






























Interactive Weather Map
Tropical Storm Tracking
New forecast layout! Learn more

10-Day Weather Forecast

Advertisements
Track Severe Weather on mobile